createdAt,value
2019-02-26T00:02:28.807Z,102314.41
2019-02-26T00:05:02.878Z,102317.05
2019-02-26T00:07:32.155Z,102316.81
2019-02-26T00:10:05.302Z,102325.54
2019-02-26T00:12:37.363Z,102324.63
2019-02-26T00:15:10.770Z,102310.36
2019-02-26T00:17:45.309Z,102311.78
2019-02-26T00:20:15.027Z,102291.47
2019-02-26T00:22:46.548Z,102283.05
2019-02-26T00:25:17.993Z,102280.27
2019-02-26T00:27:50.238Z,102267.74
2019-02-26T00:30:22.420Z,102261.31
2019-02-26T00:32:55.439Z,102266.23
2019-02-26T00:35:27.761Z,102256.36
2019-02-26T00:38:00.484Z,102259.97
2019-02-26T00:40:32.703Z,102259.45
2019-02-26T00:43:06.580Z,102272.24
2019-02-26T00:45:39.050Z,102269.88
2019-02-26T00:48:09.077Z,102262.77
2019-02-26T00:50:40.507Z,102260.53
2019-02-26T00:53:11.972Z,102253.28
2019-02-26T00:55:43.388Z,102247.50
2019-02-26T00:58:15.776Z,102238.67
2019-02-26T01:00:47.204Z,102231.08
2019-02-26T01:03:18.376Z,102246.09
2019-02-26T01:05:50.726Z,102240.82
2019-02-26T01:08:22.208Z,102254.06
2019-02-26T01:10:53.632Z,102249.16
2019-02-26T01:13:27.637Z,102237.13
2019-02-26T01:15:57.147Z,102227.55
2019-02-26T01:18:29.038Z,102230.86
2019-02-26T01:21:02.522Z,102229.84
2019-02-26T01:23:32.751Z,102227.06
2019-02-26T01:26:04.181Z,102225.90
2019-02-26T01:28:35.649Z,102212.70
2019-02-26T01:31:07.396Z,102206.91
2019-02-26T01:33:37.940Z,102195.81
2019-02-26T01:36:09.370Z,102186.48
2019-02-26T01:38:41.746Z,102181.38
2019-02-26T01:41:13.622Z,102186.14
2019-02-26T01:43:44.668Z,102176.12
2019-02-26T01:46:16.926Z,102184.19
2019-02-26T01:48:47.282Z,102189.86
2019-02-26T01:51:19.453Z,102190.98
2019-02-26T01:53:51.917Z,102182.94
2019-02-26T01:56:22.824Z,102172.29
2019-02-26T01:58:56.580Z,102180.76
2019-02-26T02:01:26.245Z,102168.76
2019-02-26T02:03:56.598Z,102167.58
2019-02-26T02:06:30.171Z,102152.27
2019-02-26T02:09:00.096Z,102144.27
2019-02-26T02:11:33.334Z,102153.48
2019-02-26T02:14:06.046Z,102134.48
2019-02-26T02:16:37.509Z,102125.42
2019-02-26T02:19:09.902Z,102128.36
2019-02-26T02:21:40.418Z,102113.11
2019-02-26T02:24:14.707Z,102108.91
2019-02-26T02:26:47.504Z,102099.02
2019-02-26T02:29:16.891Z,102109.17
2019-02-26T02:31:48.059Z,102110.33
2019-02-26T02:34:20.450Z,102099.84
2019-02-26T02:36:51.882Z,102098.95
2019-02-26T02:39:26.552Z,102102.04
2019-02-26T02:41:56.632Z,102116.69
2019-02-26T02:44:29.989Z,102135.39
2019-02-26T02:47:01.892Z,102133.72
2019-02-26T02:49:38.914Z,102110.16
2019-02-26T02:52:09.053Z,102096.91
2019-02-26T02:54:41.089Z,102105.61
2019-02-26T02:57:10.881Z,102122.23
2019-02-26T02:59:42.248Z,102139.34
2019-02-26T03:02:15.071Z,102140.26
2019-02-26T03:04:47.068Z,102141.31
2019-02-26T03:07:18.672Z,102142.09
2019-02-26T03:09:49.665Z,102128.77
2019-02-26T03:12:21.110Z,102143.10
2019-02-26T03:14:51.645Z,102138.39
2019-02-26T03:17:23.092Z,102138.64
2019-02-26T03:19:56.039Z,102132.09
2019-02-26T03:22:26.301Z,102129.58
2019-02-26T03:24:59.599Z,102124.50
2019-02-26T03:27:34.167Z,102122.13
2019-02-26T03:30:06.914Z,102135.30
2019-02-26T03:32:41.499Z,102135.05
2019-02-26T03:35:10.161Z,102134.78
2019-02-26T03:37:43.616Z,102123.09
2019-02-26T03:40:15.231Z,102129.52
2019-02-26T03:42:46.302Z,102133.47
2019-02-26T03:45:23.650Z,102141.06
2019-02-26T03:47:50.647Z,102167.87
2019-02-26T03:50:26.319Z,102183.92
2019-02-26T03:52:54.177Z,102183.67
2019-02-26T03:55:25.617Z,102176.02
2019-02-26T03:58:01.410Z,102171.37
2019-02-26T04:00:32.487Z,102170.20
2019-02-26T04:03:03.506Z,102157.18
2019-02-26T04:05:34.490Z,102144.77
2019-02-26T04:08:05.945Z,102151.75
2019-02-26T04:10:37.395Z,102156.12
2019-02-26T04:13:08.843Z,102157.33
2019-02-26T04:15:39.551Z,102164.98
2019-02-26T04:18:09.938Z,102171.56
2019-02-26T04:20:43.397Z,102186.55
2019-02-26T04:23:18.724Z,102197.86
2019-02-26T04:25:52.125Z,102187.33
2019-02-26T04:28:32.991Z,102192.89
2019-02-26T04:31:04.247Z,102183.81
2019-02-26T04:33:58.904Z,102185.79
2019-02-26T04:36:49.250Z,102181.98
2019-02-26T04:39:47.583Z,102172.67
2019-02-26T04:42:25.355Z,102166.48
2019-02-26T04:45:27.370Z,102156.06
2019-02-26T04:48:02.628Z,102151.75
2019-02-26T04:50:35.497Z,102153.36
2019-02-26T04:53:08.468Z,102158.78
2019-02-26T04:55:39.090Z,102164.95
2019-02-26T04:58:12.443Z,102157.98
2019-02-26T05:00:42.049Z,102166.71
2019-02-26T05:03:14.904Z,102180.13
2019-02-26T05:05:45.359Z,102192.49
2019-02-26T05:08:17.790Z,102195.09
2019-02-26T05:10:49.838Z,102207.23
2019-02-26T05:13:21.996Z,102217.10
2019-02-26T05:15:52.402Z,102206.39
2019-02-26T05:18:25.870Z,102212.20
2019-02-26T05:20:55.925Z,102227.86
2019-02-26T05:23:30.860Z,102229.06
2019-02-26T05:26:05.151Z,102223.03
2019-02-26T05:28:37.495Z,102219.33
2019-02-26T05:31:06.549Z,102222.51
2019-02-26T05:33:38.608Z,102214.58
2019-02-26T05:36:11.561Z,102203.97
2019-02-26T05:38:40.984Z,102221.59
2019-02-26T05:41:12.438Z,102229.49
2019-02-26T05:43:49.492Z,102239.59
2019-02-26T05:46:18.885Z,102239.84
2019-02-26T05:48:49.111Z,102247.89
2019-02-26T05:51:20.088Z,102245.11
2019-02-26T05:53:51.543Z,102247.75
2019-02-26T05:56:23.016Z,102246.98
2019-02-26T05:58:54.487Z,102249.07
2019-02-26T06:01:25.864Z,102229.98
2019-02-26T06:03:56.728Z,102232.21
2019-02-26T06:06:28.214Z,102245.38
2019-02-26T06:09:00.442Z,102256.42
2019-02-26T06:11:36.131Z,102259.05
2019-02-26T06:14:09.163Z,102252.25
2019-02-26T06:16:38.287Z,102264.09
2019-02-26T06:19:12.886Z,102276.20
2019-02-26T06:21:44.744Z,102272.62
2019-02-26T06:24:15.120Z,102278.28
2019-02-26T06:26:45.566Z,102260.91
2019-02-26T06:29:20.042Z,102249.47
2019-02-26T06:31:49.431Z,102244.20
2019-02-26T06:34:21.418Z,102245.12
2019-02-26T06:36:54.035Z,102248.27
2019-02-26T06:39:26.831Z,102241.94
2019-02-26T06:42:03.078Z,102262.34
2019-02-26T06:44:34.900Z,102259.17
2019-02-26T06:47:06.954Z,102259.58
2019-02-26T06:49:41.412Z,102271.39
2019-02-26T06:52:16.294Z,102273.22
2019-02-26T06:54:50.557Z,102261.92
2019-02-26T06:57:19.035Z,102265.32
2019-02-26T06:59:51.532Z,102262.14
2019-02-26T07:02:22.762Z,102265.44
2019-02-26T07:04:53.063Z,102264.81
2019-02-26T07:07:24.537Z,102269.67
2019-02-26T07:09:58.100Z,102288.38
2019-02-26T07:12:30.789Z,102289.28
2019-02-26T07:15:02.791Z,102294.78
2019-02-26T07:17:38.347Z,102292.91
2019-02-26T07:20:09.276Z,102291.89
2019-02-26T07:22:41.494Z,102291.34
2019-02-26T07:25:16.637Z,102286.55
2019-02-26T07:27:47.184Z,102287.50
2019-02-26T07:30:18.640Z,102296.31
2019-02-26T07:32:50.228Z,102292.36
2019-02-26T07:35:20.623Z,102288.05
2019-02-26T07:37:52.809Z,102295.00
2019-02-26T07:40:24.155Z,102305.25
2019-02-26T07:42:55.622Z,102304.84
2019-02-26T07:45:27.441Z,102306.27
2019-02-26T07:48:01.051Z,102308.80
2019-02-26T07:50:36.957Z,102309.96
2019-02-26T07:53:03.559Z,102304.29
2019-02-26T07:55:35.478Z,102297.80
2019-02-26T07:58:08.193Z,102298.97
2019-02-26T08:00:40.363Z,102300.49
2019-02-26T08:03:13.646Z,102307.70
2019-02-26T08:05:44.218Z,102307.95
2019-02-26T08:08:17.071Z,102303.23
2019-02-26T08:10:50.778Z,102278.64
2019-02-26T08:13:21.296Z,102264.70
2019-02-26T08:15:54.983Z,102262.81
2019-02-26T08:18:25.071Z,102272.84
2019-02-26T08:20:57.967Z,102275.16
2019-02-26T08:23:28.034Z,102288.22
2019-02-26T08:26:02.151Z,102289.30
2019-02-26T08:28:32.559Z,102285.24
2019-02-26T08:31:05.342Z,102282.34
2019-02-26T08:33:35.375Z,102285.03
2019-02-26T08:36:07.331Z,102274.73
2019-02-26T08:38:38.687Z,102279.05
2019-02-26T08:41:09.027Z,102288.28
2019-02-26T08:43:42.175Z,102282.49
2019-02-26T08:46:12.179Z,102286.94
2019-02-26T08:51:49.043Z,102287.13
2019-02-26T08:54:21.263Z,102287.17
2019-02-26T08:56:51.374Z,102293.78
2019-02-26T08:59:22.029Z,102304.90
2019-02-26T09:01:52.393Z,102316.62
2019-02-26T09:04:24.200Z,102298.35
2019-02-26T09:06:57.048Z,102284.50
2019-02-26T09:09:27.813Z,102286.89
2019-02-26T09:12:00.655Z,102282.39
2019-02-26T09:14:34.456Z,102293.06
2019-02-26T09:17:04.528Z,102300.05
2019-02-26T09:19:37.911Z,102306.28
2019-02-26T09:22:11.767Z,102297.82
2019-02-26T09:24:39.949Z,102293.63
2019-02-26T09:27:10.221Z,102299.47
2019-02-26T09:29:43.938Z,102300.23
2019-02-26T09:32:14.407Z,102303.01
2019-02-26T09:34:44.420Z,102295.30
2019-02-26T09:37:14.850Z,102292.41
2019-02-26T09:39:46.291Z,102291.89
2019-02-26T09:42:17.536Z,102299.13
2019-02-26T09:44:48.681Z,102298.14
2019-02-26T09:47:23.514Z,102295.27
2019-02-26T09:49:53.908Z,102294.23
2019-02-26T09:52:27.560Z,102295.80
2019-02-26T09:54:57.307Z,102296.19
2019-02-26T09:57:28.294Z,102299.12
2019-02-26T10:00:00.238Z,102286.32
2019-02-26T10:02:30.974Z,102288.06
2019-02-26T10:05:01.240Z,102290.88
2019-02-26T10:07:33.869Z,102291.21
2019-02-26T10:10:08.482Z,102293.72
2019-02-26T10:12:39.359Z,102306.24
2019-02-26T10:15:12.678Z,102305.02
2019-02-26T10:17:45.055Z,102301.83
2019-02-26T10:20:31.001Z,102303.23
2019-02-26T10:23:02.871Z,102304.77
2019-02-26T10:25:38.782Z,102307.63
2019-02-26T10:28:14.106Z,102306.69
2019-02-26T10:30:43.778Z,102309.02
2019-02-26T10:33:17.431Z,102313.00
2019-02-26T10:35:48.076Z,102311.80
2019-02-26T10:38:18.343Z,102314.95
2019-02-26T10:40:53.862Z,102304.73
2019-02-26T10:43:20.646Z,102307.08
2019-02-26T10:45:54.753Z,102305.48
2019-02-26T10:48:25.101Z,102302.92
2019-02-26T10:50:56.105Z,102298.29
2019-02-26T10:53:26.375Z,102286.49
2019-02-26T10:55:56.645Z,102291.20
2019-02-26T10:58:26.925Z,102296.71
2019-02-26T11:00:59.368Z,102297.42
2019-02-26T11:03:29.899Z,102301.92
2019-02-26T11:06:01.452Z,102299.25
2019-02-26T11:08:35.101Z,102305.95
2019-02-26T11:11:07.997Z,102294.44
2019-02-26T11:13:40.134Z,102295.55
2019-02-26T11:16:10.762Z,102289.97
2019-02-26T11:18:42.730Z,102278.36
2019-02-26T11:21:14.252Z,102270.59
2019-02-26T11:23:46.429Z,102279.80
2019-02-26T11:26:18.766Z,102271.02
2019-02-26T11:28:48.523Z,102276.73
2019-02-26T11:31:20.438Z,102273.56
2019-02-26T11:33:50.766Z,102264.27
2019-02-26T11:36:21.061Z,102268.83
2019-02-26T11:38:51.322Z,102268.55
2019-02-26T11:41:23.727Z,102271.18
2019-02-26T11:43:55.068Z,102279.15
2019-02-26T11:46:27.213Z,102282.14
2019-02-26T11:48:57.542Z,102273.69
2019-02-26T11:51:36.866Z,102271.01
2019-02-26T11:54:02.489Z,102271.69
2019-02-26T11:56:32.164Z,102267.48
2019-02-26T11:59:02.431Z,102272.55
2019-02-26T12:01:36.921Z,102279.67
2019-02-26T12:04:08.542Z,102275.43
2019-02-26T12:06:39.543Z,102268.83
2019-02-26T12:09:11.466Z,102259.75
2019-02-26T12:11:46.920Z,102256.16
2019-02-26T12:14:19.485Z,102257.05
2019-02-26T12:16:50.984Z,102251.36
2019-02-26T12:19:23.547Z,102246.91
2019-02-26T12:21:57.511Z,102245.12
2019-02-26T12:24:28.913Z,102240.23
2019-02-26T12:27:00.132Z,102245.61
2019-02-26T12:29:30.401Z,102244.88
2019-02-26T12:32:01.215Z,102227.25
2019-02-26T12:34:34.987Z,102237.13
2019-02-26T12:37:06.672Z,102228.69
2019-02-26T12:39:36.552Z,102230.13
2019-02-26T12:42:08.034Z,102226.42
2019-02-26T12:44:42.377Z,102222.69
2019-02-26T12:47:12.911Z,102215.22
2019-02-26T12:49:45.078Z,102214.55
2019-02-26T12:52:17.930Z,102207.48
2019-02-26T12:54:47.573Z,102197.62
2019-02-26T12:57:19.801Z,102198.30
2019-02-26T12:59:50.869Z,102189.66
2019-02-26T13:02:24.605Z,102193.52
2019-02-26T13:04:53.505Z,102198.45
2019-02-26T13:07:24.113Z,102194.32
2019-02-26T13:09:59.690Z,102198.89
2019-02-26T13:12:31.562Z,102202.55
2019-02-26T13:15:04.797Z,102192.50
2019-02-26T13:17:32.287Z,102184.77
2019-02-26T13:20:05.820Z,102188.31
2019-02-26T13:22:34.802Z,102178.97
2019-02-26T13:25:13.318Z,102190.43
2019-02-26T13:27:43.190Z,102193.64
2019-02-26T13:30:25.740Z,102188.84
2019-02-26T13:32:59.914Z,102191.08
2019-02-26T13:35:28.799Z,102195.25
2019-02-26T13:38:02.161Z,102192.05
2019-02-26T13:40:38.667Z,102195.56
2019-02-26T13:43:08.447Z,102206.87
2019-02-26T13:45:39.789Z,102208.36
2019-02-26T13:48:11.223Z,102211.02
2019-02-26T13:50:41.490Z,102203.98
2019-02-26T13:53:11.755Z,102214.27
2019-02-26T13:55:42.026Z,102216.33
2019-02-26T13:58:12.435Z,102212.91
2019-02-26T14:00:42.990Z,102216.33
2019-02-26T14:03:15.147Z,102213.17
2019-02-26T14:05:46.437Z,102220.45
2019-02-26T14:08:17.867Z,102218.62
2019-02-26T14:10:48.145Z,102215.64
2019-02-26T14:13:18.408Z,102220.20
2019-02-26T14:15:48.766Z,102224.13
2019-02-26T14:18:19.159Z,102224.67
2019-02-26T14:20:49.753Z,102224.98
2019-02-26T14:23:20.066Z,102234.05
2019-02-26T14:25:50.316Z,102244.19
2019-02-26T14:28:20.574Z,102247.88
2019-02-26T14:30:50.840Z,102246.97
2019-02-26T14:33:21.157Z,102247.67
2019-02-26T14:35:54.208Z,102252.35
2019-02-26T14:38:24.484Z,102251.02
2019-02-26T14:40:56.140Z,102256.84
2019-02-26T14:43:26.409Z,102252.78
2019-02-26T14:45:56.751Z,102259.17
2019-02-26T14:48:28.294Z,102255.41
2019-02-26T14:50:58.732Z,102257.37
2019-02-26T14:53:28.952Z,102260.42
2019-02-26T14:55:59.221Z,102261.84
2019-02-26T14:58:29.699Z,102266.80
2019-02-26T15:01:01.145Z,102257.11
2019-02-26T15:03:33.824Z,102261.52
2019-02-26T15:06:05.275Z,102258.13
2019-02-26T15:08:35.555Z,102264.52
2019-02-26T15:11:06.090Z,102253.22
2019-02-26T15:13:36.922Z,102252.88
2019-02-26T15:16:07.502Z,102254.07
2019-02-26T15:18:38.265Z,102255.55
2019-02-26T15:21:09.724Z,102258.10
2019-02-26T15:23:41.516Z,102258.80
2019-02-26T15:26:13.100Z,102250.86
2019-02-26T15:28:44.657Z,102261.44
2019-02-26T15:31:15.107Z,102261.75
2019-02-26T15:33:47.305Z,102257.97
2019-02-26T15:36:18.730Z,102252.42
2019-02-26T15:38:49.302Z,102245.77
2019-02-26T15:41:21.782Z,102244.63
2019-02-26T15:43:54.530Z,102254.25
2019-02-26T15:46:24.710Z,102246.86
2019-02-26T15:48:57.232Z,102255.25
2019-02-26T15:51:30.415Z,102258.48
2019-02-26T15:54:01.988Z,102261.48
2019-02-26T15:56:33.345Z,102267.94
2019-02-26T15:59:05.318Z,102266.16
2019-02-26T16:01:35.726Z,102273.39
2019-02-26T16:04:06.234Z,102272.92
2019-02-26T16:06:41.184Z,102272.72
2019-02-26T16:09:14.841Z,102275.13
2019-02-26T16:11:45.397Z,102281.83
2019-02-26T16:14:17.320Z,102284.88
2019-02-26T16:16:48.539Z,102282.81
2019-02-26T16:19:19.888Z,102290.81
2019-02-26T16:21:50.244Z,102295.38
2019-02-26T16:24:20.530Z,102290.17
2019-02-26T16:26:50.805Z,102296.08
2019-02-26T16:29:22.280Z,102292.54
2019-02-26T16:31:54.069Z,102297.63
2019-02-26T16:34:26.677Z,102297.43
2019-02-26T16:36:57.040Z,102298.77
2019-02-26T16:39:28.508Z,102300.55
2019-02-26T16:42:00.387Z,102302.69
2019-02-26T16:44:31.046Z,102304.34
2019-02-26T16:47:01.333Z,102296.73
2019-02-26T16:49:32.999Z,102306.92
2019-02-26T16:52:03.270Z,102305.50
2019-02-26T16:54:33.572Z,102303.78
2019-02-26T16:57:03.731Z,102318.13
2019-02-26T16:59:34.014Z,102318.13
2019-02-26T17:02:04.366Z,102317.36
2019-02-26T17:04:35.329Z,102316.48
2019-02-26T17:07:05.610Z,102319.23
2019-02-26T17:09:38.612Z,102324.93
2019-02-26T17:12:09.619Z,102323.76
2019-02-26T17:14:39.941Z,102322.47
2019-02-26T17:17:10.313Z,102330.12
2019-02-26T17:19:40.870Z,102333.03
2019-02-26T17:22:11.369Z,102337.52
2019-02-26T17:24:41.647Z,102340.41
2019-02-26T17:27:12.507Z,102341.84
2019-02-26T17:29:42.983Z,102338.97
2019-02-26T17:32:14.470Z,102345.44
2019-02-26T17:34:44.822Z,102345.69
2019-02-26T17:37:15.110Z,102344.10
2019-02-26T17:39:45.484Z,102340.02
2019-02-26T17:42:17.874Z,102340.97
2019-02-26T17:44:47.719Z,102348.73
2019-02-26T17:47:18.083Z,102336.61
2019-02-26T17:49:48.830Z,102345.95
2019-02-26T17:52:19.199Z,102344.53
2019-02-26T17:54:49.894Z,102350.70
2019-02-26T17:57:20.312Z,102361.38
2019-02-26T17:59:50.589Z,102361.39
2019-02-26T18:02:20.897Z,102361.00
2019-02-26T18:04:51.643Z,102362.05
2019-02-26T18:07:22.236Z,102371.11
2019-02-26T18:09:57.121Z,102366.78
2019-02-26T18:12:27.447Z,102366.00
2019-02-26T18:14:57.736Z,102366.24
2019-02-26T18:17:28.021Z,102379.13
2019-02-26T18:19:58.354Z,102382.29
2019-02-26T18:22:28.621Z,102381.75
2019-02-26T18:24:58.988Z,102369.09
2019-02-26T18:27:30.499Z,102370.38
2019-02-26T18:30:01.727Z,102373.01
2019-02-26T18:32:33.431Z,102366.32
2019-02-26T18:35:03.729Z,102366.17
2019-02-26T18:37:35.670Z,102358.80
2019-02-26T18:40:08.698Z,102367.09
2019-02-26T18:42:41.404Z,102354.59
2019-02-26T18:45:28.755Z,102367.58
2019-02-26T18:47:59.527Z,102365.87
2019-02-26T18:50:29.804Z,102370.05
2019-02-26T18:53:00.114Z,102373.88
2019-02-26T18:55:32.646Z,102375.71
2019-02-26T18:58:03.527Z,102374.80
2019-02-26T19:00:38.096Z,102381.37
2019-02-26T19:03:09.487Z,102385.67
2019-02-26T19:05:42.740Z,102387.91
2019-02-26T19:08:15.834Z,102391.17
2019-02-26T19:10:47.175Z,102388.42
2019-02-26T19:13:17.528Z,102374.72
2019-02-26T19:15:48.471Z,102374.19
2019-02-26T19:18:20.318Z,102374.83
2019-02-26T19:20:51.235Z,102368.66
2019-02-26T19:23:21.516Z,102381.80
2019-02-26T19:25:51.789Z,102379.40
2019-02-26T19:28:25.934Z,102371.63
2019-02-26T19:30:55.837Z,102367.93
2019-02-26T19:33:26.242Z,102363.31
2019-02-26T19:35:56.511Z,102367.92
2019-02-26T19:38:29.705Z,102378.26
2019-02-26T19:41:07.901Z,102377.45
2019-02-26T19:43:38.753Z,102374.83
2019-02-26T19:46:09.038Z,102380.33
2019-02-26T19:48:39.492Z,102380.72
2019-02-26T19:51:09.770Z,102371.36
2019-02-26T19:53:40.066Z,102369.69
2019-02-26T19:56:11.796Z,102358.22
2019-02-26T19:58:43.978Z,102358.96
2019-02-26T20:01:14.263Z,102359.47
2019-02-26T20:03:45.727Z,102360.66
2019-02-26T20:06:16.011Z,102360.78
2019-02-26T20:08:47.333Z,102365.75
2019-02-26T20:11:18.037Z,102370.77
2019-02-26T20:13:48.322Z,102359.92
2019-02-26T20:16:19.368Z,102362.41
2019-02-26T20:18:51.185Z,102366.47
2019-02-26T20:21:22.911Z,102371.20
2019-02-26T20:23:53.567Z,102366.81
2019-02-26T20:26:23.992Z,102369.41
2019-02-26T20:28:54.357Z,102370.33
2019-02-26T20:31:24.665Z,102383.33
2019-02-26T20:33:56.338Z,102381.10
2019-02-26T20:36:30.231Z,102377.39
2019-02-26T20:39:07.638Z,102371.83
2019-02-26T20:41:36.962Z,102373.90
2019-02-26T20:44:07.856Z,102381.41
2019-02-26T20:46:39.812Z,102377.28
2019-02-26T20:49:12.342Z,102381.85
2019-02-26T20:51:44.980Z,102380.14
2019-02-26T20:54:15.659Z,102385.49
2019-02-26T20:56:48.090Z,102388.22
2019-02-26T20:59:24.483Z,102386.11
2019-02-26T21:01:55.953Z,102395.96
2019-02-26T21:04:27.536Z,102387.41
2019-02-26T21:06:57.916Z,102381.44
2019-02-26T21:09:28.233Z,102392.03
2019-02-26T21:11:59.889Z,102392.52
2019-02-26T21:14:30.316Z,102392.84
2019-02-26T21:17:02.200Z,102392.61
2019-02-26T21:19:35.725Z,102397.59
2019-02-26T21:22:27.119Z,102404.86
2019-02-26T21:24:59.280Z,102407.34
2019-02-26T21:27:32.282Z,102406.43
2019-02-26T21:30:06.953Z,102408.98
2019-02-26T21:32:39.267Z,102407.62
2019-02-26T21:35:11.698Z,102404.41
2019-02-26T21:37:43.489Z,102404.10
2019-02-26T21:40:16.888Z,102413.45
2019-02-26T21:42:54.199Z,102413.19
2019-02-26T21:45:29.161Z,102413.23
2019-02-26T21:48:04.502Z,102413.89
2019-02-26T21:50:36.524Z,102415.12
2019-02-26T21:53:15.455Z,102411.27
2019-02-26T21:55:47.120Z,102413.23
2019-02-26T21:58:20.136Z,102409.22
2019-02-26T22:00:52.773Z,102413.63
2019-02-26T22:03:24.837Z,102417.34
2019-02-26T22:06:04.847Z,102414.80
2019-02-26T22:08:29.143Z,102426.28
2019-02-26T22:11:06.457Z,102421.51
2019-02-26T22:13:38.331Z,102420.28
2019-02-26T22:16:08.596Z,102417.82
2019-02-26T22:18:40.594Z,102430.47
2019-02-26T22:21:10.870Z,102429.23
2019-02-26T22:23:41.135Z,102423.08
2019-02-26T22:26:14.479Z,102414.97
2019-02-26T22:28:46.726Z,102421.98
2019-02-26T22:31:18.158Z,102425.91
2019-02-26T22:33:48.432Z,102422.92
2019-02-26T22:36:20.292Z,102418.90
2019-02-26T22:38:50.561Z,102415.12
2019-02-26T22:41:21.054Z,102417.75
2019-02-26T22:43:51.322Z,102409.58
2019-02-26T22:46:21.582Z,102405.91
2019-02-26T22:48:51.845Z,102408.59
2019-02-26T22:51:22.174Z,102415.36
2019-02-26T22:53:52.460Z,102412.04
2019-02-26T22:56:24.714Z,102409.78
2019-02-26T22:58:55.080Z,102415.47
2019-02-26T23:01:30.585Z,102411.61
2019-02-26T23:04:00.619Z,102420.20
2019-02-26T23:06:31.723Z,102416.94
2019-02-26T23:09:03.667Z,102408.63
2019-02-26T23:11:35.687Z,102407.84
2019-02-26T23:14:06.490Z,102400.13
2019-02-26T23:16:37.084Z,102411.57
2019-02-26T23:19:07.592Z,102405.88
2019-02-26T23:21:38.686Z,102408.11
2019-02-26T23:24:09.211Z,102407.13
2019-02-26T23:26:42.513Z,102397.33
2019-02-26T23:29:12.955Z,102405.48
2019-02-26T23:31:43.217Z,102402.36
2019-02-26T23:34:14.651Z,102405.44
2019-02-26T23:36:44.907Z,102409.92
2019-02-26T23:39:15.561Z,102409.15
2019-02-26T23:41:47.412Z,102408.78
2019-02-26T23:44:18.955Z,102411.84
2019-02-26T23:46:49.283Z,102402.03
2019-02-26T23:49:19.556Z,102400.93
2019-02-26T23:51:50.994Z,102396.95
2019-02-26T23:54:21.789Z,102398.88
2019-02-26T23:56:52.684Z,102400.19
2019-02-26T23:59:23.369Z,102400.19
